sensor_id;sensor_type;location;lat;lon;timestamp;temperature;humidity
64843;DHT22;51310;52.198;5.422;2023-04-06T00:02:05;2.60;68.20
64843;DHT22;51310;52.198;5.422;2023-04-06T00:04:31;2.50;68.60
64843;DHT22;51310;52.198;5.422;2023-04-06T00:06:56;2.50;69.00
64843;DHT22;51310;52.198;5.422;2023-04-06T00:09:22;2.50;69.20
64843;DHT22;51310;52.198;5.422;2023-04-06T00:11:48;2.40;69.50
64843;DHT22;51310;52.198;5.422;2023-04-06T00:14:14;2.40;69.30
64843;DHT22;51310;52.198;5.422;2023-04-06T00:16:41;2.40;69.70
64843;DHT22;51310;52.198;5.422;2023-04-06T00:19:06;2.40;70.10
64843;DHT22;51310;52.198;5.422;2023-04-06T00:21:32;2.30;70.40
64843;DHT22;51310;52.198;5.422;2023-04-06T00:23:58;2.30;70.20
64843;DHT22;51310;52.198;5.422;2023-04-06T00:26:23;2.30;70.50
64843;DHT22;51310;52.198;5.422;2023-04-06T00:28:49;2.20;70.70
64843;DHT22;51310;52.198;5.422;2023-04-06T00:31:17;2.20;71.10
64843;DHT22;51310;52.198;5.422;2023-04-06T00:33:43;2.20;71.50
64843;DHT22;51310;52.198;5.422;2023-04-06T00:36:08;2.20;71.40
64843;DHT22;51310;52.198;5.422;2023-04-06T00:38:34;2.20;71.40
64843;DHT22;51310;52.198;5.422;2023-04-06T00:41:00;2.10;71.50
64843;DHT22;51310;52.198;5.422;2023-04-06T00:43:26;2.10;71.70
64843;DHT22;51310;52.198;5.422;2023-04-06T00:45:52;2.10;71.70
64843;DHT22;51310;52.198;5.422;2023-04-06T00:48:18;2.10;71.70
64843;DHT22;51310;52.198;5.422;2023-04-06T00:50:43;2.10;72.10
64843;DHT22;51310;52.198;5.422;2023-04-06T00:53:09;2.10;72.40
64843;DHT22;51310;52.198;5.422;2023-04-06T00:55:35;2.10;72.20
64843;DHT22;51310;52.198;5.422;2023-04-06T00:58:01;2.10;72.30
64843;DHT22;51310;52.198;5.422;2023-04-06T01:00:27;2.10;72.60
64843;DHT22;51310;52.198;5.422;2023-04-06T01:02:53;2.10;72.50
64843;DHT22;51310;52.198;5.422;2023-04-06T01:05:19;2.00;73.00
64843;DHT22;51310;52.198;5.422;2023-04-06T01:07:45;2.00;73.20
64843;DHT22;51310;52.198;5.422;2023-04-06T01:10:11;2.00;73.50
64843;DHT22;51310;52.198;5.422;2023-04-06T01:12:48;2.00;73.90
64843;DHT22;51310;52.198;5.422;2023-04-06T01:15:14;2.00;74.00
64843;DHT22;51310;52.198;5.422;2023-04-06T01:17:40;2.00;74.80
64843;DHT22;51310;52.198;5.422;2023-04-06T01:20:07;2.00;74.90
64843;DHT22;51310;52.198;5.422;2023-04-06T01:22:32;2.00;75.10
64843;DHT22;51310;52.198;5.422;2023-04-06T01:24:58;2.00;75.00
64843;DHT22;51310;52.198;5.422;2023-04-06T01:27:24;2.00;75.00
64843;DHT22;51310;52.198;5.422;2023-04-06T01:29:51;2.10;75.50
64843;DHT22;51310;52.198;5.422;2023-04-06T01:32:17;2.10;76.20
64843;DHT22;51310;52.198;5.422;2023-04-06T01:34:43;2.10;77.00
64843;DHT22;51310;52.198;5.422;2023-04-06T01:37:08;2.10;77.50
64843;DHT22;51310;52.198;5.422;2023-04-06T01:39:34;2.10;78.10
64843;DHT22;51310;52.198;5.422;2023-04-06T01:42:00;2.10;79.00
64843;DHT22;51310;52.198;5.422;2023-04-06T01:44:26;2.10;79.20
64843;DHT22;51310;52.198;5.422;2023-04-06T01:46:52;2.10;78.70
64843;DHT22;51310;52.198;5.422;2023-04-06T01:49:17;2.20;78.80
64843;DHT22;51310;52.198;5.422;2023-04-06T01:51:43;2.20;77.70
64843;DHT22;51310;52.198;5.422;2023-04-06T01:54:09;2.20;77.20
64843;DHT22;51310;52.198;5.422;2023-04-06T01:56:34;2.30;76.80
64843;DHT22;51310;52.198;5.422;2023-04-06T01:59:00;2.30;76.20
64843;DHT22;51310;52.198;5.422;2023-04-06T02:01:26;2.30;75.90
64843;DHT22;51310;52.198;5.422;2023-04-06T02:03:52;2.40;75.80
64843;DHT22;51310;52.198;5.422;2023-04-06T02:06:17;2.30;75.80
64843;DHT22;51310;52.198;5.422;2023-04-06T02:08:43;2.40;75.70
64843;DHT22;51310;52.198;5.422;2023-04-06T02:11:09;2.40;75.60
64843;DHT22;51310;52.198;5.422;2023-04-06T02:13:34;2.40;75.30
64843;DHT22;51310;52.198;5.422;2023-04-06T02:16:00;2.40;74.70
64843;DHT22;51310;52.198;5.422;2023-04-06T02:18:28;2.40;74.40
64843;DHT22;51310;52.198;5.422;2023-04-06T02:20:55;2.50;74.20
64843;DHT22;51310;52.198;5.422;2023-04-06T02:23:21;2.50;73.90
64843;DHT22;51310;52.198;5.422;2023-04-06T02:25:47;2.50;73.30
64843;DHT22;51310;52.198;5.422;2023-04-06T02:28:13;2.50;72.60
64843;DHT22;51310;52.198;5.422;2023-04-06T02:30:38;2.50;72.10
64843;DHT22;51310;52.198;5.422;2023-04-06T02:33:04;2.60;71.70
64843;DHT22;51310;52.198;5.422;2023-04-06T02:35:30;2.70;71.20
64843;DHT22;51310;52.198;5.422;2023-04-06T02:37:57;2.70;70.30
64843;DHT22;51310;52.198;5.422;2023-04-06T02:40:22;2.80;69.90
64843;DHT22;51310;52.198;5.422;2023-04-06T02:42:48;2.80;69.40
64843;DHT22;51310;52.198;5.422;2023-04-06T02:45:14;2.80;69.40
64843;DHT22;51310;52.198;5.422;2023-04-06T02:47:39;2.80;69.20
64843;DHT22;51310;52.198;5.422;2023-04-06T02:50:05;2.90;69.10
64843;DHT22;51310;52.198;5.422;2023-04-06T02:52:31;2.90;69.00
64843;DHT22;51310;52.198;5.422;2023-04-06T02:54:57;2.90;68.90
64843;DHT22;51310;52.198;5.422;2023-04-06T02:57:23;2.90;68.90
64843;DHT22;51310;52.198;5.422;2023-04-06T02:59:49;2.90;68.70
64843;DHT22;51310;52.198;5.422;2023-04-06T03:02:15;2.90;68.70
64843;DHT22;51310;52.198;5.422;2023-04-06T03:04:41;2.90;68.40
64843;DHT22;51310;52.198;5.422;2023-04-06T03:07:07;2.90;68.50
64843;DHT22;51310;52.198;5.422;2023-04-06T03:09:33;2.90;68.40
64843;DHT22;51310;52.198;5.422;2023-04-06T03:11:58;3.00;68.10
64843;DHT22;51310;52.198;5.422;2023-04-06T03:14:25;3.00;67.70
64843;DHT22;51310;52.198;5.422;2023-04-06T03:16:51;3.10;67.70
64843;DHT22;51310;52.198;5.422;2023-04-06T03:19:16;3.10;67.50
64843;DHT22;51310;52.198;5.422;2023-04-06T03:21:42;3.10;67.20
64843;DHT22;51310;52.198;5.422;2023-04-06T03:24:08;3.10;67.30
64843;DHT22;51310;52.198;5.422;2023-04-06T03:26:33;3.10;66.90
64843;DHT22;51310;52.198;5.422;2023-04-06T03:28:59;3.10;66.90
64843;DHT22;51310;52.198;5.422;2023-04-06T03:31:26;3.10;66.70
64843;DHT22;51310;52.198;5.422;2023-04-06T03:33:52;3.20;66.50
64843;DHT22;51310;52.198;5.422;2023-04-06T03:36:18;3.20;66.30
64843;DHT22;51310;52.198;5.422;2023-04-06T03:38:43;3.20;66.30
64843;DHT22;51310;52.198;5.422;2023-04-06T03:41:09;3.20;66.40
64843;DHT22;51310;52.198;5.422;2023-04-06T03:43:35;3.20;66.40
64843;DHT22;51310;52.198;5.422;2023-04-06T03:46:01;3.20;66.30
64843;DHT22;51310;52.198;5.422;2023-04-06T03:48:27;3.20;66.40
64843;DHT22;51310;52.198;5.422;2023-04-06T03:50:52;3.30;66.30
64843;DHT22;51310;52.198;5.422;2023-04-06T03:53:18;3.30;66.20
64843;DHT22;51310;52.198;5.422;2023-04-06T03:55:44;3.30;66.40
64843;DHT22;51310;52.198;5.422;2023-04-06T03:58:09;3.30;66.40
64843;DHT22;51310;52.198;5.422;2023-04-06T04:00:35;3.30;66.30
64843;DHT22;51310;52.198;5.422;2023-04-06T04:03:01;3.30;66.40
64843;DHT22;51310;52.198;5.422;2023-04-06T04:05:27;3.30;66.60
64843;DHT22;51310;52.198;5.422;2023-04-06T04:07:53;3.30;66.70
64843;DHT22;51310;52.198;5.422;2023-04-06T04:10:19;3.30;66.90
64843;DHT22;51310;52.198;5.422;2023-04-06T04:12:45;3.20;67.00
64843;DHT22;51310;52.198;5.422;2023-04-06T04:15:10;3.20;66.90
64843;DHT22;51310;52.198;5.422;2023-04-06T04:17:36;3.20;67.10
64843;DHT22;51310;52.198;5.422;2023-04-06T04:20:02;3.10;67.20
64843;DHT22;51310;52.198;5.422;2023-04-06T04:22:28;3.10;67.30
64843;DHT22;51310;52.198;5.422;2023-04-06T04:24:53;3.10;67.50
64843;DHT22;51310;52.198;5.422;2023-04-06T04:27:19;3.10;67.90
64843;DHT22;51310;52.198;5.422;2023-04-06T04:29:46;3.00;68.20
64843;DHT22;51310;52.198;5.422;2023-04-06T04:32:11;3.00;68.60
64843;DHT22;51310;52.198;5.422;2023-04-06T04:34:37;2.90;69.00
64843;DHT22;51310;52.198;5.422;2023-04-06T04:37:05;2.90;69.00
64843;DHT22;51310;52.198;5.422;2023-04-06T04:39:32;2.90;69.30
64843;DHT22;51310;52.198;5.422;2023-04-06T04:41:57;2.90;69.50
64843;DHT22;51310;52.198;5.422;2023-04-06T04:44:23;2.80;69.80
64843;DHT22;51310;52.198;5.422;2023-04-06T04:46:49;2.80;70.00
64843;DHT22;51310;52.198;5.422;2023-04-06T04:49:14;2.80;70.10
64843;DHT22;51310;52.198;5.422;2023-04-06T04:51:40;2.80;70.40
64843;DHT22;51310;52.198;5.422;2023-04-06T04:54:06;2.70;70.70
64843;DHT22;51310;52.198;5.422;2023-04-06T04:56:32;2.70;70.60
64843;DHT22;51310;52.198;5.422;2023-04-06T04:58:57;2.70;71.00
64843;DHT22;51310;52.198;5.422;2023-04-06T05:01:23;2.70;71.20
64843;DHT22;51310;52.198;5.422;2023-04-06T05:03:49;2.80;71.20
64843;DHT22;51310;52.198;5.422;2023-04-06T05:06:14;2.80;71.10
64843;DHT22;51310;52.198;5.422;2023-04-06T05:08:41;2.80;71.20
64843;DHT22;51310;52.198;5.422;2023-04-06T05:11:08;2.80;71.20
64843;DHT22;51310;52.198;5.422;2023-04-06T05:13:34;2.90;71.40
64843;DHT22;51310;52.198;5.422;2023-04-06T05:16:00;2.90;71.00
64843;DHT22;51310;52.198;5.422;2023-04-06T05:18:26;3.00;70.90
64843;DHT22;51310;52.198;5.422;2023-04-06T05:20:52;3.00;70.70
64843;DHT22;51310;52.198;5.422;2023-04-06T05:23:18;3.10;70.70
64843;DHT22;51310;52.198;5.422;2023-04-06T05:25:43;3.10;70.50
64843;DHT22;51310;52.198;5.422;2023-04-06T05:28:09;3.10;70.30
64843;DHT22;51310;52.198;5.422;2023-04-06T05:30:35;3.30;70.00
64843;DHT22;51310;52.198;5.422;2023-04-06T05:33:01;3.30;69.70
64843;DHT22;51310;52.198;5.422;2023-04-06T05:35:27;3.50;69.40
64843;DHT22;51310;52.198;5.422;2023-04-06T05:37:53;3.50;69.10
64843;DHT22;51310;52.198;5.422;2023-04-06T05:40:18;3.60;68.50
64843;DHT22;51310;52.198;5.422;2023-04-06T05:42:44;3.60;68.40
64843;DHT22;51310;52.198;5.422;2023-04-06T05:45:10;3.70;68.30
64843;DHT22;51310;52.198;5.422;2023-04-06T05:47:42;3.80;67.90
64843;DHT22;51310;52.198;5.422;2023-04-06T05:50:09;3.90;67.80
64843;DHT22;51310;52.198;5.422;2023-04-06T05:52:35;3.90;67.50
64843;DHT22;51310;52.198;5.422;2023-04-06T05:55:02;4.00;67.60
64843;DHT22;51310;52.198;5.422;2023-04-06T05:57:28;4.10;66.90
64843;DHT22;51310;52.198;5.422;2023-04-06T05:59:54;4.20;66.60
64843;DHT22;51310;52.198;5.422;2023-04-06T06:02:21;4.20;66.40
64843;DHT22;51310;52.198;5.422;2023-04-06T06:04:47;4.30;66.30
64843;DHT22;51310;52.198;5.422;2023-04-06T06:07:13;4.30;65.80
64843;DHT22;51310;52.198;5.422;2023-04-06T06:09:39;4.30;66.10
64843;DHT22;51310;52.198;5.422;2023-04-06T06:12:05;4.40;65.90
64843;DHT22;51310;52.198;5.422;2023-04-06T06:14:31;4.40;65.90
64843;DHT22;51310;52.198;5.422;2023-04-06T06:16:56;4.40;66.10
64843;DHT22;51310;52.198;5.422;2023-04-06T06:19:22;4.50;66.10
64843;DHT22;51310;52.198;5.422;2023-04-06T06:21:48;4.50;66.30
64843;DHT22;51310;52.198;5.422;2023-04-06T06:24:14;4.50;65.90
64843;DHT22;51310;52.198;5.422;2023-04-06T06:26:39;4.60;65.80
64843;DHT22;51310;52.198;5.422;2023-04-06T06:29:06;4.60;65.90
64843;DHT22;51310;52.198;5.422;2023-04-06T06:31:32;4.70;65.90
64843;DHT22;51310;52.198;5.422;2023-04-06T06:33:58;4.70;66.10
64843;DHT22;51310;52.198;5.422;2023-04-06T06:36:25;4.70;66.40
64843;DHT22;51310;52.198;5.422;2023-04-06T06:38:51;4.70;66.60
64843;DHT22;51310;52.198;5.422;2023-04-06T06:41:17;4.70;66.90
64843;DHT22;51310;52.198;5.422;2023-04-06T06:43:42;4.70;67.10
64843;DHT22;51310;52.198;5.422;2023-04-06T06:46:08;4.70;67.30
64843;DHT22;51310;52.198;5.422;2023-04-06T06:48:34;4.80;67.50
64843;DHT22;51310;52.198;5.422;2023-04-06T06:50:59;4.90;67.30
64843;DHT22;51310;52.198;5.422;2023-04-06T06:53:26;5.00;67.30
64843;DHT22;51310;52.198;5.422;2023-04-06T06:55:51;5.10;67.00
64843;DHT22;51310;52.198;5.422;2023-04-06T06:58:18;5.30;66.30
64843;DHT22;51310;52.198;5.422;2023-04-06T07:00:48;5.40;66.30
64843;DHT22;51310;52.198;5.422;2023-04-06T07:03:13;5.50;65.80
64843;DHT22;51310;52.198;5.422;2023-04-06T07:05:45;5.70;65.50
64843;DHT22;51310;52.198;5.422;2023-04-06T07:08:16;5.90;64.70
64843;DHT22;51310;52.198;5.422;2023-04-06T07:10:41;6.00;63.60
64843;DHT22;51310;52.198;5.422;2023-04-06T07:13:07;6.10;63.60
64843;DHT22;51310;52.198;5.422;2023-04-06T07:15:33;6.10;63.40
64843;DHT22;51310;52.198;5.422;2023-04-06T07:17:58;6.10;62.90
64843;DHT22;51310;52.198;5.422;2023-04-06T07:20:25;6.20;63.10
64843;DHT22;51310;52.198;5.422;2023-04-06T07:22:50;6.10;63.00
64843;DHT22;51310;52.198;5.422;2023-04-06T07:25:16;6.10;63.00
64843;DHT22;51310;52.198;5.422;2023-04-06T07:27:42;6.10;63.00
64843;DHT22;51310;52.198;5.422;2023-04-06T07:30:08;6.10;63.50
64843;DHT22;51310;52.198;5.422;2023-04-06T07:32:33;6.00;63.60
64843;DHT22;51310;52.198;5.422;2023-04-06T07:35:01;6.00;63.50
64843;DHT22;51310;52.198;5.422;2023-04-06T07:37:27;6.00;63.90
64843;DHT22;51310;52.198;5.422;2023-04-06T07:39:53;6.00;64.00
64843;DHT22;51310;52.198;5.422;2023-04-06T07:42:18;6.00;64.10
64843;DHT22;51310;52.198;5.422;2023-04-06T07:44:44;6.10;63.90
64843;DHT22;51310;52.198;5.422;2023-04-06T07:47:10;6.10;64.20
64843;DHT22;51310;52.198;5.422;2023-04-06T07:49:36;6.20;64.00
64843;DHT22;51310;52.198;5.422;2023-04-06T07:52:01;6.20;64.10
64843;DHT22;51310;52.198;5.422;2023-04-06T07:54:28;6.20;64.40
64843;DHT22;51310;52.198;5.422;2023-04-06T07:56:54;6.30;64.30
64843;DHT22;51310;52.198;5.422;2023-04-06T07:59:19;6.40;64.30
64843;DHT22;51310;52.198;5.422;2023-04-06T08:01:45;6.40;64.20
64843;DHT22;51310;52.198;5.422;2023-04-06T08:04:11;6.50;64.40
64843;DHT22;51310;52.198;5.422;2023-04-06T08:06:36;6.60;63.70
64843;DHT22;51310;52.198;5.422;2023-04-06T08:09:02;6.70;63.50
64843;DHT22;51310;52.198;5.422;2023-04-06T08:11:29;6.80;63.40
64843;DHT22;51310;52.198;5.422;2023-04-06T08:13:55;6.90;62.90
64843;DHT22;51310;52.198;5.422;2023-04-06T08:16:24;7.00;62.90
64843;DHT22;51310;52.198;5.422;2023-04-06T08:18:50;7.10;62.40
64843;DHT22;51310;52.198;5.422;2023-04-06T08:21:16;7.20;62.50
64843;DHT22;51310;52.198;5.422;2023-04-06T08:23:41;7.30;61.50
64843;DHT22;51310;52.198;5.422;2023-04-06T08:26:07;7.30;61.30
64843;DHT22;51310;52.198;5.422;2023-04-06T08:28:33;7.40;61.40
64843;DHT22;51310;52.198;5.422;2023-04-06T08:31:03;7.40;61.30
64843;DHT22;51310;52.198;5.422;2023-04-06T08:33:33;7.40;60.50
64843;DHT22;51310;52.198;5.422;2023-04-06T08:36:11;7.50;59.80
64843;DHT22;51310;52.198;5.422;2023-04-06T08:38:39;7.50;59.70
64843;DHT22;51310;52.198;5.422;2023-04-06T08:41:11;7.50;59.80
64843;DHT22;51310;52.198;5.422;2023-04-06T08:43:48;7.50;60.10
64843;DHT22;51310;52.198;5.422;2023-04-06T08:46:21;7.50;60.50
64843;DHT22;51310;52.198;5.422;2023-04-06T08:48:48;7.60;60.10
64843;DHT22;51310;52.198;5.422;2023-04-06T08:51:18;7.60;60.10
64843;DHT22;51310;52.198;5.422;2023-04-06T08:53:44;7.70;60.00
64843;DHT22;51310;52.198;5.422;2023-04-06T08:56:10;7.80;59.90
64843;DHT22;51310;52.198;5.422;2023-04-06T08:58:39;7.80;59.80
64843;DHT22;51310;52.198;5.422;2023-04-06T09:01:07;7.80;59.80
64843;DHT22;51310;52.198;5.422;2023-04-06T09:03:40;8.00;60.20
64843;DHT22;51310;52.198;5.422;2023-04-06T09:06:08;8.10;59.70
64843;DHT22;51310;52.198;5.422;2023-04-06T09:08:35;8.10;58.90
64843;DHT22;51310;52.198;5.422;2023-04-06T09:11:05;8.10;59.20
64843;DHT22;51310;52.198;5.422;2023-04-06T09:13:43;8.10;59.60
64843;DHT22;51310;52.198;5.422;2023-04-06T09:16:10;8.20;59.40
64843;DHT22;51310;52.198;5.422;2023-04-06T09:18:36;8.30;59.50
64843;DHT22;51310;52.198;5.422;2023-04-06T09:21:04;8.50;59.80
64843;DHT22;51310;52.198;5.422;2023-04-06T09:23:32;8.60;59.60
64843;DHT22;51310;52.198;5.422;2023-04-06T09:26:12;8.80;59.30
64843;DHT22;51310;52.198;5.422;2023-04-06T09:31:16;9.00;58.30
64843;DHT22;51310;52.198;5.422;2023-04-06T09:33:46;9.00;58.70
64843;DHT22;51310;52.198;5.422;2023-04-06T09:36:13;9.00;58.80
64843;DHT22;51310;52.198;5.422;2023-04-06T09:38:58;9.00;58.90
64843;DHT22;51310;52.198;5.422;2023-04-06T09:41:26;9.00;59.10
64843;DHT22;51310;52.198;5.422;2023-04-06T09:44:10;9.00;59.20
64843;DHT22;51310;52.198;5.422;2023-04-06T09:46:41;9.10;59.20
64843;DHT22;51310;52.198;5.422;2023-04-06T09:49:09;9.10;59.40
64843;DHT22;51310;52.198;5.422;2023-04-06T09:51:40;9.20;60.00
64843;DHT22;51310;52.198;5.422;2023-04-06T09:54:21;9.40;59.70
64843;DHT22;51310;52.198;5.422;2023-04-06T09:59:58;9.50;58.90
64843;DHT22;51310;52.198;5.422;2023-04-06T10:05:27;9.70;59.00
64843;DHT22;51310;52.198;5.422;2023-04-06T10:07:57;9.80;59.00
64843;DHT22;51310;52.198;5.422;2023-04-06T10:10:28;10.00;58.70
64843;DHT22;51310;52.198;5.422;2023-04-06T10:12:54;10.10;59.30
64843;DHT22;51310;52.198;5.422;2023-04-06T10:15:21;10.30;59.50
64843;DHT22;51310;52.198;5.422;2023-04-06T10:17:47;10.40;59.90
64843;DHT22;51310;52.198;5.422;2023-04-06T10:26:00;10.40;61.40
64843;DHT22;51310;52.198;5.422;2023-04-06T10:28:36;10.40;61.80
64843;DHT22;51310;52.198;5.422;2023-04-06T10:31:04;10.40;62.30
64843;DHT22;51310;52.198;5.422;2023-04-06T10:33:31;10.50;62.00
64843;DHT22;51310;52.198;5.422;2023-04-06T10:35:57;10.40;62.90
64843;DHT22;51310;52.198;5.422;2023-04-06T10:38:37;10.40;63.20
64843;DHT22;51310;52.198;5.422;2023-04-06T10:41:05;10.50;64.10
64843;DHT22;51310;52.198;5.422;2023-04-06T10:43:36;10.50;64.60
64843;DHT22;51310;52.198;5.422;2023-04-06T10:46:05;10.50;65.00
64843;DHT22;51310;52.198;5.422;2023-04-06T10:48:40;10.40;65.60
64843;DHT22;51310;52.198;5.422;2023-04-06T10:51:17;10.40;67.20
64843;DHT22;51310;52.198;5.422;2023-04-06T10:53:48;10.30;68.70
64843;DHT22;51310;52.198;5.422;2023-04-06T10:56:15;10.30;69.70
64843;DHT22;51310;52.198;5.422;2023-04-06T10:58:49;10.20;71.70
64843;DHT22;51310;52.198;5.422;2023-04-06T11:01:19;10.30;73.00
64843;DHT22;51310;52.198;5.422;2023-04-06T11:03:48;10.30;72.70
64843;DHT22;51310;52.198;5.422;2023-04-06T11:06:20;10.30;78.20
64843;DHT22;51310;52.198;5.422;2023-04-06T11:08:51;10.30;80.60
64843;DHT22;51310;52.198;5.422;2023-04-06T11:11:19;10.10;79.10
64843;DHT22;51310;52.198;5.422;2023-04-06T11:13:58;10.00;85.30
64843;DHT22;51310;52.198;5.422;2023-04-06T11:19:03;9.70;99.90
64843;DHT22;51310;52.198;5.422;2023-04-06T11:21:32;9.60;99.90
64843;DHT22;51310;52.198;5.422;2023-04-06T11:24:14;9.60;99.90
64843;DHT22;51310;52.198;5.422;2023-04-06T11:26:48;9.50;99.90
64843;DHT22;51310;52.198;5.422;2023-04-06T11:29:21;9.50;99.90
64843;DHT22;51310;52.198;5.422;2023-04-06T11:31:53;9.40;99.90
64843;DHT22;51310;52.198;5.422;2023-04-06T11:34:28;9.40;99.90
64843;DHT22;51310;52.198;5.422;2023-04-06T11:37:00;9.40;99.90
64843;DHT22;51310;52.198;5.422;2023-04-06T11:39:29;9.30;99.90
64843;DHT22;51310;52.198;5.422;2023-04-06T11:41:58;9.30;99.90
64843;DHT22;51310;52.198;5.422;2023-04-06T11:44:43;9.30;99.90
64843;DHT22;51310;52.198;5.422;2023-04-06T11:47:13;9.40;99.90
64843;DHT22;51310;52.198;5.422;2023-04-06T11:49:44;9.40;99.90
64843;DHT22;51310;52.198;5.422;2023-04-06T11:52:21;9.40;99.90
64843;DHT22;51310;52.198;5.422;2023-04-06T11:54:50;9.30;99.90
64843;DHT22;51310;52.198;5.422;2023-04-06T11:57:18;9.40;99.90
64843;DHT22;51310;52.198;5.422;2023-04-06T11:59:46;9.40;99.90
64843;DHT22;51310;52.198;5.422;2023-04-06T12:02:12;9.20;99.90
64843;DHT22;51310;52.198;5.422;2023-04-06T12:04:38;9.30;99.90
64843;DHT22;51310;52.198;5.422;2023-04-06T12:07:04;9.40;99.90
64843;DHT22;51310;52.198;5.422;2023-04-06T12:09:30;9.40;99.90
64843;DHT22;51310;52.198;5.422;2023-04-06T12:11:56;9.30;99.90
64843;DHT22;51310;52.198;5.422;2023-04-06T12:14:23;9.40;99.90
64843;DHT22;51310;52.198;5.422;2023-04-06T12:16:49;9.40;99.90
64843;DHT22;51310;52.198;5.422;2023-04-06T12:19:14;9.50;99.90
64843;DHT22;51310;52.198;5.422;2023-04-06T12:21:40;9.60;99.90
64843;DHT22;51310;52.198;5.422;2023-04-06T12:24:07;9.60;99.90
64843;DHT22;51310;52.198;5.422;2023-04-06T12:26:33;9.50;99.90
64843;DHT22;51310;52.198;5.422;2023-04-06T12:29:00;9.40;99.90
64843;DHT22;51310;52.198;5.422;2023-04-06T12:31:31;9.40;99.90
64843;DHT22;51310;52.198;5.422;2023-04-06T12:34:00;9.40;99.90
64843;DHT22;51310;52.198;5.422;2023-04-06T12:36:27;9.30;99.90
64843;DHT22;51310;52.198;5.422;2023-04-06T12:38:53;9.20;99.90
64843;DHT22;51310;52.198;5.422;2023-04-06T12:41:19;9.20;99.90
64843;DHT22;51310;52.198;5.422;2023-04-06T12:43:45;9.00;99.90
64843;DHT22;51310;52.198;5.422;2023-04-06T12:46:11;9.00;99.90
64843;DHT22;51310;52.198;5.422;2023-04-06T12:48:38;9.00;99.90
64843;DHT22;51310;52.198;5.422;2023-04-06T12:51:05;8.90;99.90
64843;DHT22;51310;52.198;5.422;2023-04-06T12:53:32;8.90;99.90
64843;DHT22;51310;52.198;5.422;2023-04-06T12:56:00;8.80;99.90
64843;DHT22;51310;52.198;5.422;2023-04-06T12:58:27;8.80;99.90
64843;DHT22;51310;52.198;5.422;2023-04-06T13:00:55;8.80;99.90
64843;DHT22;51310;52.198;5.422;2023-04-06T13:03:23;8.80;99.90
64843;DHT22;51310;52.198;5.422;2023-04-06T13:05:50;8.90;99.90
64843;DHT22;51310;52.198;5.422;2023-04-06T13:08:18;8.90;99.90
64843;DHT22;51310;52.198;5.422;2023-04-06T13:10:47;8.90;99.90
64843;DHT22;51310;52.198;5.422;2023-04-06T13:13:14;8.90;99.90
64843;DHT22;51310;52.198;5.422;2023-04-06T13:15:41;8.90;99.90
64843;DHT22;51310;52.198;5.422;2023-04-06T13:18:07;8.90;99.90
64843;DHT22;51310;52.198;5.422;2023-04-06T13:20:34;8.80;99.90
64843;DHT22;51310;52.198;5.422;2023-04-06T13:23:00;8.80;99.90
64843;DHT22;51310;52.198;5.422;2023-04-06T13:25:26;8.80;99.90
64843;DHT22;51310;52.198;5.422;2023-04-06T13:27:51;8.70;99.90
64843;DHT22;51310;52.198;5.422;2023-04-06T13:30:17;8.60;99.90
64843;DHT22;51310;52.198;5.422;2023-04-06T13:32:43;8.70;99.90
64843;DHT22;51310;52.198;5.422;2023-04-06T13:35:09;8.70;99.90
64843;DHT22;51310;52.198;5.422;2023-04-06T13:37:35;8.60;99.90
64843;DHT22;51310;52.198;5.422;2023-04-06T13:40:05;8.50;99.90
64843;DHT22;51310;52.198;5.422;2023-04-06T13:42:32;8.50;99.90
64843;DHT22;51310;52.198;5.422;2023-04-06T13:44:58;8.40;99.90
64843;DHT22;51310;52.198;5.422;2023-04-06T13:47:24;8.30;99.90
64843;DHT22;51310;52.198;5.422;2023-04-06T13:49:50;8.20;99.90
64843;DHT22;51310;52.198;5.422;2023-04-06T13:52:19;8.20;99.90
64843;DHT22;51310;52.198;5.422;2023-04-06T13:54:45;8.10;99.90
64843;DHT22;51310;52.198;5.422;2023-04-06T13:57:11;8.10;99.90
64843;DHT22;51310;52.198;5.422;2023-04-06T13:59:38;8.10;99.90
64843;DHT22;51310;52.198;5.422;2023-04-06T14:02:06;8.00;99.90
64843;DHT22;51310;52.198;5.422;2023-04-06T14:04:33;8.00;99.90
64843;DHT22;51310;52.198;5.422;2023-04-06T14:07:00;8.00;99.90
64843;DHT22;51310;52.198;5.422;2023-04-06T14:09:27;8.00;99.90
64843;DHT22;51310;52.198;5.422;2023-04-06T14:11:53;8.00;99.90
64843;DHT22;51310;52.198;5.422;2023-04-06T14:14:20;7.90;99.90
64843;DHT22;51310;52.198;5.422;2023-04-06T14:16:46;7.80;99.90
64843;DHT22;51310;52.198;5.422;2023-04-06T14:19:15;7.80;99.90
64843;DHT22;51310;52.198;5.422;2023-04-06T14:21:46;7.80;99.90
64843;DHT22;51310;52.198;5.422;2023-04-06T14:24:13;7.80;99.90
64843;DHT22;51310;52.198;5.422;2023-04-06T14:26:40;7.80;99.90
64843;DHT22;51310;52.198;5.422;2023-04-06T14:29:07;7.80;99.90
64843;DHT22;51310;52.198;5.422;2023-04-06T14:31:34;7.80;99.90
64843;DHT22;51310;52.198;5.422;2023-04-06T14:34:01;7.80;99.90
64843;DHT22;51310;52.198;5.422;2023-04-06T14:36:29;7.80;99.90
64843;DHT22;51310;52.198;5.422;2023-04-06T14:39:05;7.80;99.90
64843;DHT22;51310;52.198;5.422;2023-04-06T14:41:32;7.80;99.90
64843;DHT22;51310;52.198;5.422;2023-04-06T14:43:59;7.70;99.90
64843;DHT22;51310;52.198;5.422;2023-04-06T14:46:26;7.60;99.90
64843;DHT22;51310;52.198;5.422;2023-04-06T14:48:55;7.60;99.90
64843;DHT22;51310;52.198;5.422;2023-04-06T14:51:22;7.60;99.90
64843;DHT22;51310;52.198;5.422;2023-04-06T14:53:50;7.60;99.90
64843;DHT22;51310;52.198;5.422;2023-04-06T14:56:22;7.60;99.90
64843;DHT22;51310;52.198;5.422;2023-04-06T14:58:50;7.60;99.90
64843;DHT22;51310;52.198;5.422;2023-04-06T15:01:18;7.60;99.90
64843;DHT22;51310;52.198;5.422;2023-04-06T15:03:45;7.60;99.90
64843;DHT22;51310;52.198;5.422;2023-04-06T15:06:13;7.60;99.90
64843;DHT22;51310;52.198;5.422;2023-04-06T15:08:41;7.60;99.90
64843;DHT22;51310;52.198;5.422;2023-04-06T15:11:07;7.60;99.90
64843;DHT22;51310;52.198;5.422;2023-04-06T15:13:33;7.50;99.90
64843;DHT22;51310;52.198;5.422;2023-04-06T15:15:59;7.50;99.90
64843;DHT22;51310;52.198;5.422;2023-04-06T15:18:24;7.50;99.90
64843;DHT22;51310;52.198;5.422;2023-04-06T15:20:51;7.50;99.90
64843;DHT22;51310;52.198;5.422;2023-04-06T15:23:17;7.50;99.90
64843;DHT22;51310;52.198;5.422;2023-04-06T15:25:43;7.50;99.90
64843;DHT22;51310;52.198;5.422;2023-04-06T15:28:09;7.50;99.90
64843;DHT22;51310;52.198;5.422;2023-04-06T15:30:35;7.50;99.90
64843;DHT22;51310;52.198;5.422;2023-04-06T15:33:03;7.50;99.90
64843;DHT22;51310;52.198;5.422;2023-04-06T15:35:31;7.50;99.90
64843;DHT22;51310;52.198;5.422;2023-04-06T15:37:59;7.50;99.90
64843;DHT22;51310;52.198;5.422;2023-04-06T15:40:26;7.50;99.90
64843;DHT22;51310;52.198;5.422;2023-04-06T15:42:52;7.60;99.90
64843;DHT22;51310;52.198;5.422;2023-04-06T15:45:18;7.60;99.90
64843;DHT22;51310;52.198;5.422;2023-04-06T15:47:44;7.60;99.90
64843;DHT22;51310;52.198;5.422;2023-04-06T15:50:11;7.50;99.90
64843;DHT22;51310;52.198;5.422;2023-04-06T15:52:38;7.50;99.90
64843;DHT22;51310;52.198;5.422;2023-04-06T15:55:06;7.50;99.90
64843;DHT22;51310;52.198;5.422;2023-04-06T15:57:33;7.50;99.90
64843;DHT22;51310;52.198;5.422;2023-04-06T16:00:00;7.50;99.90
64843;DHT22;51310;52.198;5.422;2023-04-06T16:02:26;7.50;99.90